createdAt,value
2018-11-12T00:01:22.214Z,11.45
2018-11-12T00:03:50.436Z,11.39
2018-11-12T00:06:18.745Z,11.40
2018-11-12T00:08:46.861Z,11.29
2018-11-12T00:11:15.128Z,11.28
2018-11-12T00:13:43.287Z,11.28
2018-11-12T00:16:11.679Z,11.29
2018-11-12T00:18:39.901Z,11.19
2018-11-12T00:21:08.061Z,11.15
2018-11-12T00:23:36.288Z,11.21
2018-11-12T00:26:04.907Z,11.30
2018-11-12T00:28:33.051Z,11.22
2018-11-12T00:31:02.398Z,11.09
2018-11-12T00:33:30.514Z,11.13
2018-11-12T00:35:58.633Z,11.05
2018-11-12T00:38:26.770Z,11.02
2018-11-12T00:40:54.892Z,11.01
2018-11-12T00:43:23.092Z,10.99
2018-11-12T00:45:51.241Z,11.00
2018-11-12T00:48:19.628Z,11.09
2018-11-12T00:50:47.799Z,11.04
2018-11-12T00:53:15.993Z,10.98
2018-11-12T00:55:44.115Z,10.93
2018-11-12T00:58:12.376Z,10.97
2018-11-12T01:00:40.596Z,11.07
2018-11-12T01:03:08.744Z,11.14
2018-11-12T01:05:37.137Z,11.13
2018-11-12T01:08:05.599Z,11.41
2018-11-12T01:10:40.196Z,11.43
2018-11-12T01:13:08.402Z,11.43
2018-11-12T01:15:36.691Z,11.35
2018-11-12T01:18:05.036Z,11.54
2018-11-12T01:20:33.641Z,11.56
2018-11-12T01:23:01.819Z,11.66
2018-11-12T01:25:30.019Z,11.71
2018-11-12T01:27:58.276Z,11.82
2018-11-12T01:30:26.586Z,11.81
2018-11-12T01:32:55.128Z,11.89
2018-11-12T01:35:23.322Z,11.97
2018-11-12T01:37:51.447Z,12.00
2018-11-12T01:40:19.592Z,12.03
2018-11-12T01:42:47.727Z,12.06
2018-11-12T01:45:17.180Z,12.07
2018-11-12T01:47:46.484Z,11.99
2018-11-12T01:50:15.111Z,12.08
2018-11-12T01:52:43.979Z,12.14
2018-11-12T01:55:13.528Z,12.03
2018-11-12T01:57:41.897Z,11.95
2018-11-12T02:00:12.871Z,11.97
2018-11-12T02:02:41.357Z,12.00
2018-11-12T02:05:10.047Z,11.96
2018-11-12T02:07:38.344Z,12.00
2018-11-12T02:10:08.101Z,12.00
2018-11-12T02:12:36.535Z,12.07
2018-11-12T02:15:07.450Z,12.10
2018-11-12T02:17:35.829Z,11.93
2018-11-12T02:20:04.628Z,11.72
2018-11-12T02:22:32.819Z,11.51
2018-11-12T02:25:00.941Z,11.45
2018-11-12T02:27:29.188Z,11.34
2018-11-12T02:29:57.438Z,11.25
2018-11-12T02:32:25.498Z,11.24
2018-11-12T02:34:53.803Z,11.21
2018-11-12T02:37:21.920Z,11.04
2018-11-12T02:39:50.123Z,10.74
2018-11-12T02:42:18.566Z,10.74
2018-11-12T02:44:46.741Z,10.82
2018-11-12T02:47:14.892Z,10.90
2018-11-12T02:49:43.572Z,10.90
2018-11-12T02:52:11.727Z,10.85
2018-11-12T02:54:39.966Z,10.78
2018-11-12T02:57:08.124Z,10.82
2018-11-12T02:59:36.662Z,10.90
2018-11-12T03:02:04.894Z,10.84
2018-11-12T03:04:33.048Z,10.86
2018-11-12T03:07:01.424Z,10.85
2018-11-12T03:09:29.813Z,10.87
2018-11-12T03:11:58.135Z,10.93
2018-11-12T03:14:26.259Z,10.82
2018-11-12T03:16:54.559Z,10.94
2018-11-12T03:19:22.751Z,10.95
2018-11-12T03:21:50.941Z,10.96
2018-11-12T03:24:19.237Z,10.98
2018-11-12T03:26:47.392Z,11.03
2018-11-12T03:29:15.575Z,11.07
2018-11-12T03:31:44.008Z,11.03
2018-11-12T03:34:12.213Z,11.08
2018-11-12T03:36:40.469Z,11.10
2018-11-12T03:39:09.519Z,11.22
2018-11-12T03:41:38.532Z,11.33
2018-11-12T03:44:06.929Z,11.18
2018-11-12T03:46:35.397Z,11.34
2018-11-12T03:49:03.891Z,11.19
2018-11-12T03:51:32.168Z,11.12
2018-11-12T03:54:00.579Z,11.01
2018-11-12T03:56:28.796Z,10.90
2018-11-12T03:58:56.919Z,10.89
2018-11-12T04:01:29.614Z,10.94
2018-11-12T04:03:57.831Z,10.90
2018-11-12T04:06:25.962Z,10.98
2018-11-12T04:08:54.135Z,11.02
2018-11-12T04:11:22.409Z,11.00
2018-11-12T04:13:50.668Z,11.01
2018-11-12T04:16:18.933Z,11.10
2018-11-12T04:18:47.105Z,11.17
2018-11-12T04:21:15.334Z,11.30
2018-11-12T04:23:43.692Z,11.42
2018-11-12T04:26:12.012Z,11.48
2018-11-12T04:28:40.473Z,11.44
2018-11-12T04:31:09.642Z,11.51
2018-11-12T04:33:37.836Z,11.55
2018-11-12T04:36:06.255Z,11.48
2018-11-12T04:38:34.415Z,11.55
2018-11-12T04:41:02.664Z,11.52
2018-11-12T04:43:31.175Z,11.51
2018-11-12T04:45:59.412Z,11.55
2018-11-12T04:48:27.560Z,11.58
2018-11-12T04:50:55.768Z,11.62
2018-11-12T04:53:24.020Z,11.35
2018-11-12T04:55:52.560Z,11.35
2018-11-12T04:58:20.832Z,11.39
2018-11-12T05:00:49.042Z,11.24
2018-11-12T05:03:17.254Z,10.90
2018-11-12T05:05:45.419Z,10.60
2018-11-12T05:08:13.558Z,10.50
2018-11-12T05:10:41.774Z,10.35
2018-11-12T05:13:09.922Z,10.17
2018-11-12T05:15:38.131Z,10.13
2018-11-12T05:18:06.425Z,10.10
2018-11-12T05:20:34.621Z,10.12
2018-11-12T05:23:02.766Z,10.21
2018-11-12T05:25:30.903Z,10.20
2018-11-12T05:27:59.048Z,10.51
2018-11-12T05:30:28.447Z,10.65
2018-11-12T05:32:57.138Z,10.93
2018-11-12T05:35:26.574Z,11.08
2018-11-12T05:37:55.236Z,11.25
2018-11-12T05:40:24.567Z,11.37
2018-11-12T05:42:52.740Z,11.54
2018-11-12T05:45:22.064Z,11.57
2018-11-12T05:47:50.305Z,11.63
2018-11-12T05:50:21.973Z,11.61
2018-11-12T05:52:51.434Z,11.57
2018-11-12T05:55:21.073Z,11.54
2018-11-12T05:57:49.326Z,11.53
2018-11-12T06:00:21.302Z,11.49
2018-11-12T06:02:49.513Z,11.52
2018-11-12T06:05:17.792Z,11.60
2018-11-12T06:07:46.096Z,11.15
2018-11-12T06:10:16.243Z,10.92
2018-11-12T06:12:44.796Z,10.75
2018-11-12T06:15:13.813Z,10.68
2018-11-12T06:17:42.704Z,10.84
2018-11-12T06:20:15.202Z,10.71
2018-11-12T06:22:43.683Z,10.70
2018-11-12T06:25:13.103Z,10.88
2018-11-12T06:27:41.330Z,11.00
2018-11-12T06:30:12.760Z,11.06
2018-11-12T06:32:41.028Z,11.14
2018-11-12T06:35:10.137Z,11.09
2018-11-12T06:37:38.376Z,11.08
2018-11-12T06:40:08.215Z,11.16
2018-11-12T06:42:36.838Z,11.23
2018-11-12T06:45:05.904Z,11.34
2018-11-12T06:47:34.162Z,11.49
2018-11-12T06:50:02.357Z,11.61
2018-11-12T06:52:30.533Z,11.79
2018-11-12T06:54:58.697Z,11.90
2018-11-12T06:57:27.321Z,11.97
2018-11-12T06:59:55.780Z,12.01
2018-11-12T07:02:24.147Z,12.15
2018-11-12T07:04:52.316Z,12.31
2018-11-12T07:07:20.637Z,12.39
2018-11-12T07:09:49.016Z,12.59
2018-11-12T07:12:17.304Z,12.67
2018-11-12T07:14:45.665Z,12.81
2018-11-12T07:17:13.805Z,12.83
2018-11-12T07:19:42.042Z,12.82
2018-11-12T07:22:10.229Z,12.98
2018-11-12T07:24:38.651Z,13.16
2018-11-12T07:27:07.064Z,13.11
2018-11-12T07:29:35.515Z,12.88
2018-11-12T07:32:03.731Z,12.75
2018-11-12T07:34:31.972Z,12.72
2018-11-12T07:37:00.092Z,12.71
2018-11-12T07:39:28.453Z,12.65
2018-11-12T07:41:56.667Z,12.70
2018-11-12T07:44:24.849Z,12.67
2018-11-12T07:46:52.980Z,12.78
2018-11-12T07:49:21.407Z,12.78
2018-11-12T07:51:49.600Z,12.99
2018-11-12T07:54:17.799Z,13.06
2018-11-12T07:56:45.984Z,13.00
2018-11-12T07:59:14.149Z,12.97
2018-11-12T08:01:42.287Z,13.12
2018-11-12T08:04:10.794Z,13.31
2018-11-12T08:06:39.157Z,13.28
2018-11-12T08:09:08.434Z,13.26
2018-11-12T08:11:36.636Z,13.49
2018-11-12T08:14:05.010Z,13.49
2018-11-12T08:16:33.258Z,13.54
2018-11-12T08:19:01.639Z,13.79
2018-11-12T08:21:30.078Z,13.84
2018-11-12T08:23:58.350Z,13.92
2018-11-12T08:26:26.837Z,13.91
2018-11-12T08:28:55.171Z,13.99
2018-11-12T08:31:23.379Z,14.00
2018-11-12T08:33:51.532Z,14.00
2018-11-12T08:36:20.099Z,13.99
2018-11-12T08:38:49.220Z,13.95
2018-11-12T08:41:17.396Z,14.06
2018-11-12T08:43:45.660Z,14.21
2018-11-12T08:46:13.968Z,14.12
2018-11-12T08:48:42.196Z,13.95
2018-11-12T08:51:17.124Z,13.90
2018-11-12T08:53:45.312Z,14.00
2018-11-12T08:56:13.483Z,14.11
2018-11-12T08:58:41.685Z,14.18
2018-11-12T09:01:09.916Z,14.29
2018-11-12T09:03:38.115Z,14.49
2018-11-12T09:06:06.567Z,14.76
2018-11-12T09:08:34.757Z,14.88
2018-11-12T09:11:03.158Z,14.91
2018-11-12T09:13:31.377Z,14.99
2018-11-12T09:15:59.483Z,14.98
2018-11-12T09:18:27.654Z,14.85
2018-11-12T09:20:55.888Z,15.01
2018-11-12T09:23:24.179Z,15.14
2018-11-12T09:25:52.612Z,14.93
2018-11-12T09:28:21.507Z,14.38
2018-11-12T09:30:51.102Z,14.24
2018-11-12T09:33:18.174Z,14.17
2018-11-12T09:35:46.372Z,14.27
2018-11-12T09:38:14.678Z,14.38
2018-11-12T09:40:42.822Z,14.43
2018-11-12T09:43:10.954Z,14.51
2018-11-12T09:45:39.333Z,14.61
2018-11-12T09:48:07.782Z,14.75
2018-11-12T09:50:36.278Z,15.02
2018-11-12T09:53:04.799Z,15.23
2018-11-12T09:55:33.831Z,15.04
2018-11-12T09:58:03.537Z,14.95
2018-11-12T10:00:32.189Z,14.73
2018-11-12T10:03:00.919Z,14.65
2018-11-12T10:05:30.130Z,14.72
2018-11-12T10:08:00.786Z,14.71
2018-11-12T10:10:46.199Z,14.73
2018-11-12T10:13:16.981Z,14.60
2018-11-12T10:15:47.076Z,14.63
2018-11-12T10:20:40.176Z,14.77
2018-11-12T10:23:08.571Z,14.64
2018-11-12T10:25:36.867Z,14.62
2018-11-12T10:28:05.152Z,14.88
2018-11-12T10:30:33.626Z,14.90
2018-11-12T10:33:02.008Z,14.83
2018-11-12T10:35:30.249Z,14.77
2018-11-12T10:37:58.650Z,14.70
2018-11-12T10:40:27.164Z,14.76
2018-11-12T10:42:55.594Z,14.60
2018-11-12T10:45:25.018Z,14.76
2018-11-12T10:47:54.062Z,14.81
2018-11-12T10:50:22.527Z,14.42
2018-11-12T10:52:50.918Z,14.31
2018-11-12T10:55:20.660Z,14.32
2018-11-12T10:57:49.177Z,14.38
2018-11-12T11:00:40.391Z,14.48
2018-11-12T11:03:17.120Z,14.68
2018-11-12T11:05:46.804Z,14.73
2018-11-12T11:08:15.315Z,14.76
2018-11-12T11:10:43.732Z,14.69
2018-11-12T11:13:12.272Z,14.38
2018-11-12T11:15:40.886Z,14.37
2018-11-12T11:18:09.138Z,14.43
2018-11-12T11:20:37.416Z,14.51
2018-11-12T11:23:05.548Z,14.45
2018-11-12T11:25:33.979Z,14.50
2018-11-12T11:28:02.445Z,14.50
2018-11-12T11:30:30.672Z,14.56
2018-11-12T11:32:58.956Z,14.72
2018-11-12T11:35:27.100Z,14.84
2018-11-12T11:37:55.348Z,14.89
2018-11-12T11:40:25.616Z,14.84
2018-11-12T11:42:53.929Z,14.92
2018-11-12T11:45:22.520Z,15.02
2018-11-12T11:47:51.694Z,15.26
2018-11-12T11:50:21.136Z,15.25
2018-11-12T11:52:49.244Z,15.43
2018-11-12T11:55:24.581Z,15.47
2018-11-12T11:57:53.155Z,15.46
2018-11-12T12:00:23.719Z,15.49
2018-11-12T12:02:53.118Z,15.59
2018-11-12T12:05:22.327Z,15.72
2018-11-12T12:07:51.123Z,15.86
2018-11-12T12:10:19.414Z,15.99
2018-11-12T12:12:48.621Z,16.16
2018-11-12T12:15:18.162Z,16.24
2018-11-12T12:17:46.567Z,16.39
2018-11-12T12:20:19.131Z,16.31
2018-11-12T12:22:47.252Z,16.00
2018-11-12T12:25:16.593Z,16.02
2018-11-12T12:27:45.396Z,16.04
2018-11-12T12:30:23.448Z,15.82
2018-11-12T12:32:52.539Z,15.81
2018-11-12T12:35:27.152Z,15.55
2018-11-12T12:37:55.678Z,15.61
2018-11-12T12:40:25.519Z,15.79
2018-11-12T12:42:53.733Z,16.04
2018-11-12T12:45:23.663Z,16.24
2018-11-12T12:47:52.430Z,16.47
2018-11-12T12:50:20.966Z,16.56
2018-11-12T12:52:49.385Z,16.67
2018-11-12T12:55:18.034Z,16.81
2018-11-12T12:57:46.893Z,16.97
2018-11-12T13:00:18.426Z,17.08
2018-11-12T13:02:46.796Z,17.22
2018-11-12T13:05:15.185Z,17.38
2018-11-12T13:07:43.737Z,17.56
2018-11-12T13:10:14.396Z,17.66
2018-11-12T13:12:42.870Z,17.78
2018-11-12T13:15:13.584Z,17.91
2018-11-12T13:17:42.452Z,18.03
2018-11-12T13:20:12.442Z,17.87
2018-11-12T13:22:40.899Z,18.06
2018-11-12T13:25:09.553Z,18.44
2018-11-12T13:27:38.117Z,18.51
2018-11-12T13:30:08.850Z,18.34
2018-11-12T13:32:37.281Z,18.19
2018-11-12T13:35:06.300Z,18.12
2018-11-12T13:37:34.595Z,17.89
2018-11-12T13:40:03.032Z,17.84
2018-11-12T13:42:31.569Z,17.94
2018-11-12T13:45:00.431Z,17.83
2018-11-12T13:47:28.792Z,18.03
2018-11-12T13:49:57.176Z,18.20
2018-11-12T13:52:25.516Z,18.25
2018-11-12T13:54:53.944Z,18.39
2018-11-12T13:57:22.334Z,18.31
2018-11-12T13:59:50.740Z,18.50
2018-11-12T14:02:19.168Z,18.58
2018-11-12T14:04:47.707Z,18.76
2018-11-12T14:07:16.148Z,18.99
2018-11-12T14:09:44.672Z,19.10
2018-11-12T14:12:13.086Z,19.17
2018-11-12T14:14:41.401Z,19.28
2018-11-12T14:17:09.852Z,19.42
2018-11-12T14:19:38.260Z,19.28
2018-11-12T14:22:06.707Z,19.21
2018-11-12T14:24:35.120Z,19.18
2018-11-12T14:27:03.504Z,19.06
2018-11-12T14:29:32.030Z,18.96
2018-11-12T14:32:00.257Z,18.70
2018-11-12T14:34:28.817Z,18.63
2018-11-12T14:36:57.331Z,18.52
2018-11-12T14:39:25.758Z,18.58
2018-11-12T14:41:53.970Z,18.75
2018-11-12T14:44:22.193Z,18.66
2018-11-12T14:46:50.682Z,18.59
2018-11-12T14:49:19.073Z,18.59
2018-11-12T14:51:47.500Z,18.44
2018-11-12T14:54:15.933Z,18.27
2018-11-12T14:56:44.371Z,18.18
2018-11-12T14:59:12.942Z,18.12
2018-11-12T15:01:41.382Z,18.00
2018-11-12T15:04:09.917Z,17.82
2018-11-12T15:06:38.342Z,17.82
2018-11-12T15:09:09.436Z,17.66
2018-11-12T15:11:38.039Z,17.40
2018-11-12T15:14:06.603Z,17.35
2018-11-12T15:16:34.776Z,17.34
2018-11-12T15:19:03.637Z,17.14
2018-11-12T15:21:32.022Z,16.97
2018-11-12T15:24:00.347Z,16.94
2018-11-12T15:26:29.404Z,16.80
2018-11-12T15:28:58.310Z,16.79
2018-11-12T15:31:26.740Z,16.72
2018-11-12T15:33:55.376Z,16.77
2018-11-12T15:36:23.767Z,16.65
2018-11-12T15:38:51.851Z,16.52
2018-11-12T15:41:20.474Z,16.44
2018-11-12T15:43:48.700Z,16.34
2018-11-12T15:46:17.147Z,16.27
2018-11-12T15:48:45.318Z,16.21
2018-11-12T15:51:13.667Z,16.15
2018-11-12T15:53:41.791Z,16.07
2018-11-12T15:56:10.276Z,16.01
2018-11-12T15:58:38.560Z,15.96
2018-11-12T16:01:06.820Z,15.99
2018-11-12T16:03:35.208Z,15.98
2018-11-12T16:06:03.784Z,16.01
2018-11-12T16:08:32.092Z,15.75
2018-11-12T16:11:00.231Z,15.46
2018-11-12T16:13:28.493Z,15.46
2018-11-12T16:15:56.866Z,15.38
2018-11-12T16:18:25.069Z,15.35
2018-11-12T16:20:53.360Z,15.27
2018-11-12T16:23:21.621Z,15.36
2018-11-12T16:25:49.796Z,15.33
2018-11-12T16:28:18.092Z,15.21
2018-11-12T16:30:46.309Z,15.14
2018-11-12T16:33:14.640Z,15.14
2018-11-12T16:35:42.863Z,15.22
2018-11-12T16:38:11.052Z,15.13
2018-11-12T16:40:39.328Z,15.07
2018-11-12T16:43:07.926Z,15.12
2018-11-12T16:45:36.380Z,15.22
2018-11-12T16:48:07.628Z,15.29
2018-11-12T16:50:36.120Z,15.38
2018-11-12T16:53:04.519Z,15.43
2018-11-12T16:55:32.904Z,15.47
2018-11-12T16:58:01.457Z,15.51
2018-11-12T17:00:29.764Z,15.53
2018-11-12T17:02:58.144Z,15.59
2018-11-12T17:05:26.547Z,15.51
2018-11-12T17:07:54.699Z,15.55
2018-11-12T17:10:24.609Z,15.42
2018-11-12T17:12:52.980Z,15.34
2018-11-12T17:15:21.156Z,15.37
2018-11-12T17:17:49.660Z,15.41
2018-11-12T17:20:19.273Z,15.47
2018-11-12T17:22:47.791Z,15.36
2018-11-12T17:25:16.767Z,15.37
2018-11-12T17:27:45.381Z,15.27
2018-11-12T17:30:15.813Z,15.28
2018-11-12T17:32:44.727Z,15.36
2018-11-12T17:35:14.635Z,15.34
2018-11-12T17:37:42.791Z,15.42
2018-11-12T17:40:17.456Z,15.45
2018-11-12T17:42:46.563Z,15.34
2018-11-12T17:45:17.004Z,15.38
2018-11-12T17:47:46.428Z,15.41
2018-11-12T17:50:14.654Z,15.35
2018-11-12T17:52:42.815Z,15.37
2018-11-12T17:55:16.634Z,15.39
2018-11-12T17:57:45.127Z,15.36
2018-11-12T18:00:17.028Z,15.27
2018-11-12T18:02:45.368Z,15.21
2018-11-12T18:05:13.506Z,15.25
2018-11-12T18:07:42.539Z,15.27
2018-11-12T18:10:11.764Z,15.33
2018-11-12T18:12:40.184Z,15.39
2018-11-12T18:15:11.458Z,15.38
2018-11-12T18:17:39.634Z,15.44
2018-11-12T18:20:11.104Z,15.52
2018-11-12T18:22:39.539Z,15.45
2018-11-12T18:25:08.472Z,15.44
2018-11-12T18:27:37.370Z,15.31
2018-11-12T18:30:11.114Z,15.21
2018-11-12T18:32:39.480Z,15.14
2018-11-12T18:35:07.883Z,15.23
2018-11-12T18:37:36.487Z,15.26
2018-11-12T18:40:05.704Z,15.26
2018-11-12T18:42:33.880Z,15.19
2018-11-12T18:45:02.012Z,15.18
2018-11-12T18:47:30.192Z,15.19
2018-11-12T18:49:58.719Z,15.07
2018-11-12T18:52:26.975Z,14.94
2018-11-12T18:54:55.368Z,14.90
2018-11-12T18:57:23.873Z,14.83
2018-11-12T18:59:52.246Z,14.66
2018-11-12T19:02:20.550Z,14.61
2018-11-12T19:04:48.873Z,14.64
2018-11-12T19:07:17.114Z,14.64
2018-11-12T19:09:45.468Z,14.64
2018-11-12T19:12:13.684Z,14.75
2018-11-12T19:14:41.820Z,14.68
2018-11-12T19:17:10.808Z,14.63
2018-11-12T19:19:39.060Z,14.60
2018-11-12T19:22:07.548Z,14.59
2018-11-12T19:24:35.807Z,14.70
2018-11-12T19:27:04.056Z,14.74
2018-11-12T19:29:32.416Z,14.67
2018-11-12T19:32:00.684Z,14.63
2018-11-12T19:34:28.840Z,14.52
2018-11-12T19:36:57.071Z,14.35
2018-11-12T19:39:25.250Z,14.23
2018-11-12T19:41:53.456Z,13.92
2018-11-12T19:44:21.696Z,13.86
2018-11-12T19:46:50.037Z,13.85
2018-11-12T19:49:18.167Z,13.74
2018-11-12T19:51:46.522Z,13.77
2018-11-12T19:54:14.979Z,13.56
2018-11-12T19:56:43.112Z,13.46
2018-11-12T19:59:12.601Z,13.50
2018-11-12T20:01:40.727Z,13.50
2018-11-12T20:04:09.032Z,13.55
2018-11-12T20:06:37.229Z,13.53
2018-11-12T20:09:07.390Z,13.45
2018-11-12T20:11:35.666Z,13.32
2018-11-12T20:14:03.807Z,12.98
2018-11-12T20:16:31.996Z,12.81
2018-11-12T20:19:00.329Z,12.77
2018-11-12T20:21:28.756Z,12.78
2018-11-12T20:23:56.993Z,12.70
2018-11-12T20:26:25.168Z,12.49
2018-11-12T20:28:53.351Z,12.50
2018-11-12T20:31:21.668Z,12.28
2018-11-12T20:33:50.102Z,12.32
2018-11-12T20:36:18.453Z,12.29
2018-11-12T20:38:46.722Z,12.31
2018-11-12T20:41:14.905Z,12.33
2018-11-12T20:43:44.078Z,12.33
2018-11-12T20:46:12.340Z,12.18
2018-11-12T20:48:40.615Z,12.06
2018-11-12T20:51:08.788Z,12.05
2018-11-12T20:53:37.155Z,12.08
2018-11-12T20:56:06.082Z,11.93
2018-11-12T20:58:34.235Z,11.69
2018-11-12T21:01:02.439Z,11.70
2018-11-12T21:03:30.848Z,11.59
2018-11-12T21:05:59.143Z,11.50
2018-11-12T21:08:27.318Z,11.58
2018-11-12T21:10:55.596Z,11.52
2018-11-12T21:13:23.986Z,11.64
2018-11-12T21:15:52.236Z,11.67
2018-11-12T21:18:20.403Z,11.57
2018-11-12T21:20:48.888Z,11.56
2018-11-12T21:23:17.102Z,11.49
2018-11-12T21:25:45.755Z,11.50
2018-11-12T21:28:14.016Z,11.60
2018-11-12T21:30:42.176Z,11.70
2018-11-12T21:33:10.352Z,11.77
2018-11-12T21:35:38.832Z,11.83
2018-11-12T21:38:07.113Z,11.87
2018-11-12T21:40:35.384Z,11.83
2018-11-12T21:43:03.630Z,11.87
2018-11-12T21:45:31.751Z,11.86
2018-11-12T21:48:00.240Z,11.88
2018-11-12T21:50:28.491Z,11.77
2018-11-12T21:52:56.731Z,11.64
2018-11-12T21:55:24.911Z,11.57
2018-11-12T21:57:53.133Z,11.34
2018-11-12T22:02:41.363Z,11.12
2018-11-12T22:05:09.504Z,11.24
2018-11-12T22:07:37.741Z,11.42
2018-11-12T22:10:07.720Z,11.50
2018-11-12T22:12:36.099Z,11.57
2018-11-12T22:15:04.395Z,11.33
2018-11-12T22:17:32.652Z,11.13
2018-11-12T22:20:00.939Z,11.28
2018-11-12T22:22:29.544Z,11.51
2018-11-12T22:24:57.734Z,11.51
2018-11-12T22:27:25.939Z,11.56
2018-11-12T22:29:54.137Z,11.49
2018-11-12T22:32:22.388Z,11.59
2018-11-12T22:34:50.617Z,11.69
2018-11-12T22:37:18.784Z,11.78
2018-11-12T22:39:46.916Z,11.81
2018-11-12T22:42:15.056Z,11.78
2018-11-12T22:44:43.180Z,11.77
2018-11-12T22:47:11.354Z,11.79
2018-11-12T22:49:39.555Z,11.46
2018-11-12T22:52:08.220Z,11.20
2018-11-12T22:54:36.390Z,11.07
2018-11-12T22:57:04.563Z,10.97
2018-11-12T22:59:33.010Z,10.95
2018-11-12T23:02:01.184Z,10.93
2018-11-12T23:04:29.434Z,10.96
2018-11-12T23:06:57.629Z,10.91
2018-11-12T23:09:25.755Z,10.93
2018-11-12T23:11:54.128Z,10.93
2018-11-12T23:14:22.300Z,10.98
2018-11-12T23:16:50.478Z,10.99
2018-11-12T23:19:18.644Z,10.93
2018-11-12T23:21:46.879Z,10.82
2018-11-12T23:24:15.004Z,10.80
2018-11-12T23:26:43.128Z,10.80
2018-11-12T23:29:11.305Z,10.75
2018-11-12T23:31:39.488Z,10.80
2018-11-12T23:34:07.868Z,10.93
2018-11-12T23:36:36.064Z,11.03
2018-11-12T23:39:05.686Z,11.05
2018-11-12T23:41:33.932Z,11.02
2018-11-12T23:44:02.201Z,11.02
2018-11-12T23:46:30.412Z,11.08
2018-11-12T23:48:58.591Z,11.08
2018-11-12T23:51:26.769Z,11.07
2018-11-12T23:53:54.955Z,11.05
2018-11-12T23:56:23.215Z,11.04
2018-11-12T23:58:52.196Z,11.09
